Etusivu
METAR-TAF:

METAR-TAF

Lentoasemat :

Opelousas, Louisiana, Yhdysvallat

Leveyspiiri: 30-33-30N, Pituuspiiri: 092-05-58W, korkeus merenpinnasta: 23 m

Tämänhetkinen sää

Tämä raportti tehtiin 28 minuuttia sitten, kello 00.15 UTC
Tuuli 11 kn etelästä
Lämpötila 23°C
Kosteus 83%
Ilmanpaine 1015 hPa
Näkyvyys: 16.1 km
Hajonneita pilviä 1900 ft:n korkeudessa
Pilvistä 4400 ft:n korkeudessa

METAR: KOPL 280015Z AUTO 17011KT 10SM BKN019 OVC044 23/20 A2998 RMK AO2 T02270195

Aika: 18:43 (00:43 UTC)


TAF: puuttuu

Säähavainnot ja -ennusteet yli 4000 lentoasemalta (METAR- ja TAF-raportit).

Käytössä olevat sääasemat on merkitty karttaan keltaisilla ja punaisilla pisteillä.

Aseta hiiri pisteen päälle nähdäksesi sääaseman nimen.

Klikkaa sitten nähdäksesi säähavainnot ja -ennusteet.

Kartan vaihtaminen: klikkaa mustalla rastilla varustettuja vihreitä pisteitä, niin voit zoomata sisään; viivalla varustettua vihreää pistettä, niin voit zoomata ulos tai vihreitä nuolia, niin pääset viereisille kartoille.


METAR-TAF: